sensor_id;sensor_type;location;lat;lon;timestamp;P1;durP1;ratioP1;P2;durP2;ratioP2
59790;SDS011;47431;51.640;5.554;2022-12-29T00:02:12;7.00;;;3.83;;
59790;SDS011;47431;51.640;5.554;2022-12-29T00:04:41;9.18;;;3.95;;
59790;SDS011;47431;51.640;5.554;2022-12-29T00:07:07;6.20;;;3.90;;
59790;SDS011;47431;51.640;5.554;2022-12-29T00:09:35;9.65;;;4.18;;
59790;SDS011;47431;51.640;5.554;2022-12-29T00:12:01;6.15;;;3.88;;
59790;SDS011;47431;51.640;5.554;2022-12-29T00:14:28;7.55;;;3.63;;
59790;SDS011;47431;51.640;5.554;2022-12-29T00:17:12;6.40;;;3.50;;
59790;SDS011;47431;51.640;5.554;2022-12-29T00:19:38;4.40;;;2.50;;
59790;SDS011;47431;51.640;5.554;2022-12-29T00:22:22;5.10;;;2.50;;
59790;SDS011;47431;51.640;5.554;2022-12-29T00:25:07;5.07;;;2.35;;
59790;SDS011;47431;51.640;5.554;2022-12-29T00:27:53;4.22;;;1.75;;
59790;SDS011;47431;51.640;5.554;2022-12-29T00:30:36;4.90;;;2.15;;
59790;SDS011;47431;51.640;5.554;2022-12-29T00:33:21;5.63;;;1.85;;
59790;SDS011;47431;51.640;5.554;2022-12-29T00:36:13;5.28;;;2.50;;
59790;SDS011;47431;51.640;5.554;2022-12-29T00:38:45;4.45;;;1.88;;
59790;SDS011;47431;51.640;5.554;2022-12-29T00:41:32;5.15;;;2.45;;
59790;SDS011;47431;51.640;5.554;2022-12-29T00:44:16;5.05;;;1.92;;
59790;SDS011;47431;51.640;5.554;2022-12-29T00:46:42;6.55;;;1.83;;
59790;SDS011;47431;51.640;5.554;2022-12-29T00:49:09;4.50;;;1.85;;
59790;SDS011;47431;51.640;5.554;2022-12-29T00:51:55;7.78;;;2.53;;
59790;SDS011;47431;51.640;5.554;2022-12-29T00:54:38;4.93;;;1.52;;
59790;SDS011;47431;51.640;5.554;2022-12-29T00:57:05;4.15;;;1.58;;
59790;SDS011;47431;51.640;5.554;2022-12-29T00:59:36;7.63;;;2.00;;
59790;SDS011;47431;51.640;5.554;2022-12-29T01:02:03;4.20;;;1.50;;
59790;SDS011;47431;51.640;5.554;2022-12-29T01:04:29;4.22;;;2.03;;
59790;SDS011;47431;51.640;5.554;2022-12-29T01:06:54;4.55;;;1.90;;
59790;SDS011;47431;51.640;5.554;2022-12-29T01:09:20;4.70;;;2.10;;
59790;SDS011;47431;51.640;5.554;2022-12-29T01:12:04;4.78;;;2.33;;
59790;SDS011;47431;51.640;5.554;2022-12-29T01:14:30;5.22;;;2.60;;
59790;SDS011;47431;51.640;5.554;2022-12-29T01:16:55;5.65;;;3.10;;
59790;SDS011;47431;51.640;5.554;2022-12-29T01:19:22;6.30;;;3.22;;
59790;SDS011;47431;51.640;5.554;2022-12-29T01:21:47;5.10;;;2.50;;
59790;SDS011;47431;51.640;5.554;2022-12-29T01:24:13;6.70;;;3.72;;
59790;SDS011;47431;51.640;5.554;2022-12-29T01:26:40;6.60;;;4.25;;
59790;SDS011;47431;51.640;5.554;2022-12-29T01:29:05;6.38;;;4.07;;
59790;SDS011;47431;51.640;5.554;2022-12-29T01:31:31;8.13;;;3.55;;
59790;SDS011;47431;51.640;5.554;2022-12-29T01:33:56;6.70;;;3.20;;
59790;SDS011;47431;51.640;5.554;2022-12-29T01:36:21;5.20;;;2.97;;
59790;SDS011;47431;51.640;5.554;2022-12-29T01:38:47;7.32;;;3.85;;
59790;SDS011;47431;51.640;5.554;2022-12-29T01:41:13;9.13;;;3.30;;
59790;SDS011;47431;51.640;5.554;2022-12-29T01:43:43;5.82;;;3.03;;
59790;SDS011;47431;51.640;5.554;2022-12-29T01:46:15;6.00;;;3.05;;
59790;SDS011;47431;51.640;5.554;2022-12-29T01:48:45;4.63;;;2.33;;
59790;SDS011;47431;51.640;5.554;2022-12-29T01:51:13;5.78;;;2.08;;
59790;SDS011;47431;51.640;5.554;2022-12-29T01:53:39;6.13;;;2.42;;
59790;SDS011;47431;51.640;5.554;2022-12-29T01:56:05;4.97;;;2.22;;
59790;SDS011;47431;51.640;5.554;2022-12-29T01:58:36;7.43;;;2.83;;
59790;SDS011;47431;51.640;5.554;2022-12-29T02:01:06;5.30;;;1.55;;
59790;SDS011;47431;51.640;5.554;2022-12-29T02:03:32;6.82;;;1.55;;
59790;SDS011;47431;51.640;5.554;2022-12-29T02:06:21;15.30;;;2.10;;
59790;SDS011;47431;51.640;5.554;2022-12-29T02:08:49;4.60;;;1.88;;
59790;SDS011;47431;51.640;5.554;2022-12-29T02:11:17;4.13;;;1.42;;
59790;SDS011;47431;51.640;5.554;2022-12-29T02:13:43;8.13;;;1.67;;
59790;SDS011;47431;51.640;5.554;2022-12-29T02:16:14;9.68;;;1.60;;
59790;SDS011;47431;51.640;5.554;2022-12-29T02:30:12;4.55;;;1.52;;
59790;SDS011;47431;51.640;5.554;2022-12-29T02:32:49;2.65;;;1.13;;
59790;SDS011;47431;51.640;5.554;2022-12-29T02:35:25;10.55;;;1.67;;
59790;SDS011;47431;51.640;5.554;2022-12-29T02:40:55;4.32;;;1.45;;
59790;SDS011;47431;51.640;5.554;2022-12-29T02:49:13;5.13;;;1.48;;
59790;SDS011;47431;51.640;5.554;2022-12-29T02:54:35;6.95;;;1.40;;
59790;SDS011;47431;51.640;5.554;2022-12-29T02:57:11;6.65;;;1.80;;
59790;SDS011;47431;51.640;5.554;2022-12-29T02:59:53;7.95;;;2.17;;
59790;SDS011;47431;51.640;5.554;2022-12-29T03:10:48;7.57;;;1.48;;
59790;SDS011;47431;51.640;5.554;2022-12-29T03:13:39;4.10;;;1.27;;
59790;SDS011;47431;51.640;5.554;2022-12-29T03:16:30;5.35;;;1.85;;
59790;SDS011;47431;51.640;5.554;2022-12-29T03:19:04;4.25;;;1.50;;
59790;SDS011;47431;51.640;5.554;2022-12-29T03:21:45;6.10;;;1.48;;
59790;SDS011;47431;51.640;5.554;2022-12-29T03:24:34;5.85;;;2.03;;
59790;SDS011;47431;51.640;5.554;2022-12-29T03:27:04;17.27;;;2.13;;
59790;SDS011;47431;51.640;5.554;2022-12-29T03:29:35;4.40;;;1.50;;
59790;SDS011;47431;51.640;5.554;2022-12-29T03:32:05;6.57;;;1.40;;
59790;SDS011;47431;51.640;5.554;2022-12-29T03:34:34;5.07;;;1.45;;
59790;SDS011;47431;51.640;5.554;2022-12-29T03:37:02;19.25;;;2.00;;
59790;SDS011;47431;51.640;5.554;2022-12-29T03:39:31;11.85;;;2.03;;
59790;SDS011;47431;51.640;5.554;2022-12-29T03:41:58;4.53;;;1.60;;
59790;SDS011;47431;51.640;5.554;2022-12-29T03:44:31;4.97;;;1.70;;
59790;SDS011;47431;51.640;5.554;2022-12-29T03:46:58;4.82;;;1.50;;
59790;SDS011;47431;51.640;5.554;2022-12-29T03:49:23;9.50;;;1.85;;
59790;SDS011;47431;51.640;5.554;2022-12-29T03:51:49;6.00;;;1.75;;
59790;SDS011;47431;51.640;5.554;2022-12-29T03:54:14;9.35;;;1.88;;
59790;SDS011;47431;51.640;5.554;2022-12-29T03:56:39;4.40;;;1.38;;
59790;SDS011;47431;51.640;5.554;2022-12-29T03:59:04;14.60;;;2.42;;
59790;SDS011;47431;51.640;5.554;2022-12-29T04:01:30;13.68;;;3.10;;
59790;SDS011;47431;51.640;5.554;2022-12-29T04:03:55;16.92;;;3.55;;
59790;SDS011;47431;51.640;5.554;2022-12-29T04:06:20;5.40;;;1.73;;
59790;SDS011;47431;51.640;5.554;2022-12-29T04:08:46;10.93;;;2.65;;
59790;SDS011;47431;51.640;5.554;2022-12-29T04:11:12;7.80;;;2.15;;
59790;SDS011;47431;51.640;5.554;2022-12-29T04:13:37;4.95;;;1.80;;
59790;SDS011;47431;51.640;5.554;2022-12-29T04:16:05;8.52;;;1.75;;
59790;SDS011;47431;51.640;5.554;2022-12-29T04:18:31;6.53;;;2.08;;
59790;SDS011;47431;51.640;5.554;2022-12-29T04:20:56;27.90;;;4.95;;
59790;SDS011;47431;51.640;5.554;2022-12-29T04:23:24;11.43;;;2.25;;
59790;SDS011;47431;51.640;5.554;2022-12-29T04:25:50;6.93;;;2.00;;
59790;SDS011;47431;51.640;5.554;2022-12-29T04:28:16;6.43;;;1.73;;
59790;SDS011;47431;51.640;5.554;2022-12-29T04:30:45;13.07;;;2.95;;
59790;SDS011;47431;51.640;5.554;2022-12-29T04:33:11;5.68;;;1.67;;
59790;SDS011;47431;51.640;5.554;2022-12-29T04:35:37;8.00;;;2.05;;
59790;SDS011;47431;51.640;5.554;2022-12-29T04:38:02;7.35;;;2.28;;
59790;SDS011;47431;51.640;5.554;2022-12-29T04:40:28;9.27;;;2.20;;
59790;SDS011;47431;51.640;5.554;2022-12-29T04:42:53;11.38;;;3.28;;
59790;SDS011;47431;51.640;5.554;2022-12-29T04:45:19;13.77;;;3.25;;
59790;SDS011;47431;51.640;5.554;2022-12-29T04:47:44;15.15;;;2.78;;
59790;SDS011;47431;51.640;5.554;2022-12-29T04:50:09;9.65;;;2.13;;
59790;SDS011;47431;51.640;5.554;2022-12-29T04:52:35;11.88;;;2.45;;
59790;SDS011;47431;51.640;5.554;2022-12-29T04:55:00;7.30;;;2.47;;
59790;SDS011;47431;51.640;5.554;2022-12-29T04:57:26;10.55;;;2.60;;
59790;SDS011;47431;51.640;5.554;2022-12-29T04:59:52;10.13;;;2.55;;
59790;SDS011;47431;51.640;5.554;2022-12-29T05:02:18;7.00;;;2.45;;
59790;SDS011;47431;51.640;5.554;2022-12-29T05:04:43;12.68;;;2.22;;
59790;SDS011;47431;51.640;5.554;2022-12-29T05:07:08;10.15;;;2.15;;
59790;SDS011;47431;51.640;5.554;2022-12-29T05:09:34;16.05;;;2.28;;
59790;SDS011;47431;51.640;5.554;2022-12-29T05:11:59;11.85;;;2.50;;
59790;SDS011;47431;51.640;5.554;2022-12-29T05:14:25;12.23;;;3.08;;
59790;SDS011;47431;51.640;5.554;2022-12-29T05:16:50;8.55;;;2.20;;
59790;SDS011;47431;51.640;5.554;2022-12-29T05:19:15;6.20;;;2.25;;
59790;SDS011;47431;51.640;5.554;2022-12-29T05:21:41;7.35;;;2.20;;
59790;SDS011;47431;51.640;5.554;2022-12-29T05:24:07;13.00;;;2.72;;
59790;SDS011;47431;51.640;5.554;2022-12-29T05:26:32;22.50;;;3.45;;
59790;SDS011;47431;51.640;5.554;2022-12-29T05:28:57;12.38;;;3.17;;
59790;SDS011;47431;51.640;5.554;2022-12-29T05:31:23;12.43;;;2.22;;
59790;SDS011;47431;51.640;5.554;2022-12-29T05:33:48;20.88;;;2.88;;
59790;SDS011;47431;51.640;5.554;2022-12-29T05:36:14;20.70;;;3.10;;
59790;SDS011;47431;51.640;5.554;2022-12-29T05:38:40;12.13;;;2.40;;
59790;SDS011;47431;51.640;5.554;2022-12-29T05:41:05;18.15;;;2.47;;
59790;SDS011;47431;51.640;5.554;2022-12-29T05:43:30;16.23;;;2.95;;
59790;SDS011;47431;51.640;5.554;2022-12-29T05:45:56;22.08;;;2.80;;
59790;SDS011;47431;51.640;5.554;2022-12-29T05:48:22;16.08;;;2.63;;
59790;SDS011;47431;51.640;5.554;2022-12-29T05:50:48;11.60;;;2.63;;
59790;SDS011;47431;51.640;5.554;2022-12-29T05:53:14;11.07;;;2.38;;
59790;SDS011;47431;51.640;5.554;2022-12-29T05:55:39;10.07;;;2.50;;
59790;SDS011;47431;51.640;5.554;2022-12-29T05:58:05;9.23;;;2.42;;
59790;SDS011;47431;51.640;5.554;2022-12-29T06:00:30;11.85;;;2.30;;
59790;SDS011;47431;51.640;5.554;2022-12-29T06:02:56;12.00;;;2.42;;
59790;SDS011;47431;51.640;5.554;2022-12-29T06:05:21;22.67;;;3.78;;
59790;SDS011;47431;51.640;5.554;2022-12-29T06:07:46;11.50;;;2.78;;
59790;SDS011;47431;51.640;5.554;2022-12-29T06:10:12;15.20;;;3.63;;
59790;SDS011;47431;51.640;5.554;2022-12-29T06:12:37;8.77;;;2.22;;
59790;SDS011;47431;51.640;5.554;2022-12-29T06:15:03;14.27;;;2.92;;
59790;SDS011;47431;51.640;5.554;2022-12-29T06:17:28;15.93;;;3.35;;
59790;SDS011;47431;51.640;5.554;2022-12-29T06:19:54;14.30;;;2.42;;
59790;SDS011;47431;51.640;5.554;2022-12-29T06:22:19;8.82;;;2.53;;
59790;SDS011;47431;51.640;5.554;2022-12-29T06:24:44;12.90;;;2.33;;
59790;SDS011;47431;51.640;5.554;2022-12-29T06:27:10;17.83;;;3.50;;
59790;SDS011;47431;51.640;5.554;2022-12-29T06:29:35;12.57;;;2.83;;
59790;SDS011;47431;51.640;5.554;2022-12-29T06:32:02;6.72;;;1.95;;
59790;SDS011;47431;51.640;5.554;2022-12-29T06:34:28;9.18;;;1.90;;
59790;SDS011;47431;51.640;5.554;2022-12-29T06:36:54;10.63;;;1.50;;
59790;SDS011;47431;51.640;5.554;2022-12-29T06:39:19;12.40;;;3.53;;
59790;SDS011;47431;51.640;5.554;2022-12-29T06:41:45;13.73;;;2.38;;
59790;SDS011;47431;51.640;5.554;2022-12-29T06:44:10;7.72;;;2.00;;
59790;SDS011;47431;51.640;5.554;2022-12-29T06:46:35;5.30;;;1.50;;
59790;SDS011;47431;51.640;5.554;2022-12-29T06:49:01;19.58;;;3.30;;
59790;SDS011;47431;51.640;5.554;2022-12-29T06:51:27;26.27;;;4.20;;
59790;SDS011;47431;51.640;5.554;2022-12-29T06:53:52;14.23;;;2.20;;
59790;SDS011;47431;51.640;5.554;2022-12-29T06:56:17;6.85;;;1.73;;
59790;SDS011;47431;51.640;5.554;2022-12-29T06:58:43;11.93;;;2.15;;
59790;SDS011;47431;51.640;5.554;2022-12-29T07:01:08;18.92;;;2.78;;
59790;SDS011;47431;51.640;5.554;2022-12-29T07:03:33;19.65;;;3.47;;
59790;SDS011;47431;51.640;5.554;2022-12-29T07:05:59;27.45;;;4.43;;
59790;SDS011;47431;51.640;5.554;2022-12-29T07:08:24;25.02;;;3.53;;
59790;SDS011;47431;51.640;5.554;2022-12-29T07:10:49;22.48;;;4.28;;
59790;SDS011;47431;51.640;5.554;2022-12-29T07:13:15;12.88;;;2.72;;
59790;SDS011;47431;51.640;5.554;2022-12-29T07:15:40;34.85;;;5.35;;
59790;SDS011;47431;51.640;5.554;2022-12-29T07:18:06;20.20;;;2.78;;
59790;SDS011;47431;51.640;5.554;2022-12-29T07:20:32;13.50;;;2.95;;
59790;SDS011;47431;51.640;5.554;2022-12-29T07:22:58;17.23;;;4.25;;
59790;SDS011;47431;51.640;5.554;2022-12-29T07:25:23;43.05;;;6.68;;
59790;SDS011;47431;51.640;5.554;2022-12-29T07:27:49;31.70;;;4.90;;
59790;SDS011;47431;51.640;5.554;2022-12-29T07:30:14;24.77;;;2.78;;
59790;SDS011;47431;51.640;5.554;2022-12-29T07:32:40;19.85;;;3.70;;
59790;SDS011;47431;51.640;5.554;2022-12-29T07:35:05;12.90;;;2.88;;
59790;SDS011;47431;51.640;5.554;2022-12-29T07:37:31;23.75;;;5.03;;
59790;SDS011;47431;51.640;5.554;2022-12-29T07:39:57;20.27;;;3.75;;
59790;SDS011;47431;51.640;5.554;2022-12-29T07:42:22;11.02;;;2.38;;
59790;SDS011;47431;51.640;5.554;2022-12-29T07:44:48;14.75;;;3.05;;
59790;SDS011;47431;51.640;5.554;2022-12-29T07:47:13;14.30;;;2.85;;
59790;SDS011;47431;51.640;5.554;2022-12-29T07:49:38;24.58;;;4.05;;
59790;SDS011;47431;51.640;5.554;2022-12-29T07:52:04;29.00;;;6.00;;
59790;SDS011;47431;51.640;5.554;2022-12-29T07:54:29;17.88;;;3.42;;
59790;SDS011;47431;51.640;5.554;2022-12-29T07:56:54;19.90;;;3.85;;
59790;SDS011;47431;51.640;5.554;2022-12-29T07:59:20;17.50;;;4.63;;
59790;SDS011;47431;51.640;5.554;2022-12-29T08:01:46;13.25;;;2.60;;
59790;SDS011;47431;51.640;5.554;2022-12-29T08:04:12;26.10;;;4.70;;
59790;SDS011;47431;51.640;5.554;2022-12-29T08:06:37;22.60;;;3.78;;
59790;SDS011;47431;51.640;5.554;2022-12-29T08:09:03;19.80;;;4.10;;
59790;SDS011;47431;51.640;5.554;2022-12-29T08:11:28;16.55;;;3.90;;
59790;SDS011;47431;51.640;5.554;2022-12-29T08:13:54;14.20;;;3.22;;
59790;SDS011;47431;51.640;5.554;2022-12-29T08:16:19;19.02;;;4.53;;
59790;SDS011;47431;51.640;5.554;2022-12-29T08:18:45;17.65;;;3.25;;
59790;SDS011;47431;51.640;5.554;2022-12-29T08:21:10;18.55;;;3.17;;
59790;SDS011;47431;51.640;5.554;2022-12-29T08:23:36;15.48;;;3.05;;
59790;SDS011;47431;51.640;5.554;2022-12-29T08:26:03;12.70;;;3.17;;
59790;SDS011;47431;51.640;5.554;2022-12-29T08:28:30;17.50;;;4.05;;
59790;SDS011;47431;51.640;5.554;2022-12-29T08:30:57;20.45;;;4.22;;
59790;SDS011;47431;51.640;5.554;2022-12-29T08:33:24;12.52;;;3.03;;
59790;SDS011;47431;51.640;5.554;2022-12-29T08:35:49;20.00;;;4.28;;
59790;SDS011;47431;51.640;5.554;2022-12-29T08:38:14;16.10;;;4.03;;
59790;SDS011;47431;51.640;5.554;2022-12-29T08:40:40;22.33;;;3.08;;
59790;SDS011;47431;51.640;5.554;2022-12-29T08:43:05;30.42;;;3.53;;
59790;SDS011;47431;51.640;5.554;2022-12-29T08:45:31;15.93;;;3.85;;
59790;SDS011;47431;51.640;5.554;2022-12-29T08:47:56;16.80;;;3.03;;
59790;SDS011;47431;51.640;5.554;2022-12-29T08:50:21;19.67;;;3.20;;
59790;SDS011;47431;51.640;5.554;2022-12-29T08:52:47;13.80;;;3.03;;
59790;SDS011;47431;51.640;5.554;2022-12-29T08:55:12;12.55;;;3.90;;
59790;SDS011;47431;51.640;5.554;2022-12-29T08:57:37;14.07;;;3.42;;
59790;SDS011;47431;51.640;5.554;2022-12-29T09:00:03;16.58;;;3.60;;
59790;SDS011;47431;51.640;5.554;2022-12-29T09:02:29;10.63;;;2.65;;
59790;SDS011;47431;51.640;5.554;2022-12-29T09:04:55;14.18;;;3.50;;
59790;SDS011;47431;51.640;5.554;2022-12-29T09:07:22;21.25;;;3.35;;
59790;SDS011;47431;51.640;5.554;2022-12-29T09:09:48;15.48;;;2.88;;
59790;SDS011;47431;51.640;5.554;2022-12-29T09:12:14;14.00;;;3.38;;
59790;SDS011;47431;51.640;5.554;2022-12-29T09:14:41;22.08;;;3.88;;
59790;SDS011;47431;51.640;5.554;2022-12-29T09:17:07;14.82;;;4.68;;
59790;SDS011;47431;51.640;5.554;2022-12-29T09:19:52;11.18;;;3.17;;
59790;SDS011;47431;51.640;5.554;2022-12-29T09:22:18;12.30;;;3.70;;
59790;SDS011;47431;51.640;5.554;2022-12-29T09:24:43;15.73;;;4.50;;
59790;SDS011;47431;51.640;5.554;2022-12-29T09:27:08;13.40;;;2.67;;
59790;SDS011;47431;51.640;5.554;2022-12-29T09:29:34;29.25;;;6.15;;
59790;SDS011;47431;51.640;5.554;2022-12-29T09:31:59;21.75;;;4.72;;
59790;SDS011;47431;51.640;5.554;2022-12-29T09:34:25;17.92;;;3.67;;
59790;SDS011;47431;51.640;5.554;2022-12-29T09:36:50;15.98;;;5.00;;
59790;SDS011;47431;51.640;5.554;2022-12-29T09:39:16;17.73;;;4.05;;
59790;SDS011;47431;51.640;5.554;2022-12-29T09:47:15;20.05;;;4.47;;
59790;SDS011;47431;51.640;5.554;2022-12-29T09:49:53;23.10;;;5.28;;
59790;SDS011;47431;51.640;5.554;2022-12-29T09:52:40;12.70;;;2.88;;
59790;SDS011;47431;51.640;5.554;2022-12-29T09:55:15;19.35;;;4.53;;
59790;SDS011;47431;51.640;5.554;2022-12-29T09:57:58;15.50;;;3.55;;
59790;SDS011;47431;51.640;5.554;2022-12-29T10:03:19;27.83;;;5.00;;
59790;SDS011;47431;51.640;5.554;2022-12-29T10:22:32;13.60;;;3.30;;
59790;SDS011;47431;51.640;5.554;2022-12-29T10:24:58;31.98;;;6.50;;
59790;SDS011;47431;51.640;5.554;2022-12-29T10:27:27;16.52;;;3.85;;
59790;SDS011;47431;51.640;5.554;2022-12-29T10:29:56;25.27;;;5.15;;
59790;SDS011;47431;51.640;5.554;2022-12-29T10:32:30;27.98;;;6.47;;
59790;SDS011;47431;51.640;5.554;2022-12-29T10:35:03;19.60;;;4.40;;
59790;SDS011;47431;51.640;5.554;2022-12-29T10:43:29;30.10;;;5.35;;
59790;SDS011;47431;51.640;5.554;2022-12-29T10:46:00;30.42;;;4.13;;
59790;SDS011;47431;51.640;5.554;2022-12-29T10:48:33;24.38;;;6.00;;
59790;SDS011;47431;51.640;5.554;2022-12-29T10:51:00;20.08;;;4.20;;
59790;SDS011;47431;51.640;5.554;2022-12-29T10:53:38;18.83;;;4.60;;
59790;SDS011;47431;51.640;5.554;2022-12-29T10:58:55;25.02;;;4.97;;
59790;SDS011;47431;51.640;5.554;2022-12-29T11:01:26;41.50;;;6.40;;
59790;SDS011;47431;51.640;5.554;2022-12-29T11:04:03;23.42;;;5.00;;
59790;SDS011;47431;51.640;5.554;2022-12-29T11:06:39;20.23;;;4.30;;
59790;SDS011;47431;51.640;5.554;2022-12-29T11:12:19;18.55;;;5.38;;
59790;SDS011;47431;51.640;5.554;2022-12-29T11:23:01;19.65;;;3.92;;
59790;SDS011;47431;51.640;5.554;2022-12-29T11:25:28;33.17;;;6.32;;
59790;SDS011;47431;51.640;5.554;2022-12-29T11:28:00;17.00;;;3.92;;
59790;SDS011;47431;51.640;5.554;2022-12-29T11:30:49;14.90;;;4.57;;
59790;SDS011;47431;51.640;5.554;2022-12-29T11:33:27;16.08;;;4.53;;
59790;SDS011;47431;51.640;5.554;2022-12-29T11:36:19;18.45;;;4.60;;
59790;SDS011;47431;51.640;5.554;2022-12-29T11:38:54;25.20;;;6.28;;
59790;SDS011;47431;51.640;5.554;2022-12-29T11:41:24;17.08;;;5.22;;
59790;SDS011;47431;51.640;5.554;2022-12-29T11:43:53;24.73;;;6.75;;
59790;SDS011;47431;51.640;5.554;2022-12-29T11:46:29;19.42;;;4.63;;
59790;SDS011;47431;51.640;5.554;2022-12-29T11:48:57;19.98;;;5.38;;
59790;SDS011;47431;51.640;5.554;2022-12-29T11:51:30;22.70;;;5.10;;
59790;SDS011;47431;51.640;5.554;2022-12-29T11:54:02;24.83;;;4.30;;
59790;SDS011;47431;51.640;5.554;2022-12-29T11:56:33;41.42;;;6.43;;
59790;SDS011;47431;51.640;5.554;2022-12-29T12:05:01;39.20;;;6.65;;
59790;SDS011;47431;51.640;5.554;2022-12-29T12:07:42;24.50;;;7.32;;
59790;SDS011;47431;51.640;5.554;2022-12-29T12:10:31;21.77;;;5.25;;
59790;SDS011;47431;51.640;5.554;2022-12-29T12:13:03;19.15;;;5.18;;
59790;SDS011;47431;51.640;5.554;2022-12-29T12:15:35;28.70;;;4.10;;
59790;SDS011;47431;51.640;5.554;2022-12-29T12:18:11;27.98;;;4.55;;
59790;SDS011;47431;51.640;5.554;2022-12-29T12:32:22;28.17;;;6.88;;
59790;SDS011;47431;51.640;5.554;2022-12-29T12:34:56;23.38;;;4.95;;
59790;SDS011;47431;51.640;5.554;2022-12-29T12:50:52;30.30;;;5.63;;
59790;SDS011;47431;51.640;5.554;2022-12-29T12:56:14;31.92;;;6.00;;
59790;SDS011;47431;51.640;5.554;2022-12-29T13:04:43;29.90;;;5.13;;
59790;SDS011;47431;51.640;5.554;2022-12-29T13:23:46;19.33;;;4.63;;
59790;SDS011;47431;51.640;5.554;2022-12-29T13:28:57;19.23;;;3.75;;
59790;SDS011;47431;51.640;5.554;2022-12-29T13:36:58;19.73;;;4.47;;
59790;SDS011;47431;51.640;5.554;2022-12-29T13:39:28;19.40;;;4.72;;
59790;SDS011;47431;51.640;5.554;2022-12-29T13:42:00;21.23;;;4.60;;
59790;SDS011;47431;51.640;5.554;2022-12-29T13:44:35;16.85;;;4.47;;
59790;SDS011;47431;51.640;5.554;2022-12-29T13:49:59;29.50;;;4.80;;
59790;SDS011;47431;51.640;5.554;2022-12-29T14:01:11;19.75;;;4.57;;
59790;SDS011;47431;51.640;5.554;2022-12-29T14:06:21;38.00;;;5.88;;
59790;SDS011;47431;51.640;5.554;2022-12-29T14:08:49;20.00;;;4.05;;
59790;SDS011;47431;51.640;5.554;2022-12-29T14:11:17;19.80;;;3.60;;
59790;SDS011;47431;51.640;5.554;2022-12-29T14:13:46;52.88;;;5.35;;
59790;SDS011;47431;51.640;5.554;2022-12-29T14:18:56;28.65;;;4.97;;
59790;SDS011;47431;51.640;5.554;2022-12-29T14:21:30;19.35;;;3.78;;
59790;SDS011;47431;51.640;5.554;2022-12-29T14:26:51;15.48;;;3.53;;
59790;SDS011;47431;51.640;5.554;2022-12-29T14:31:54;30.38;;;5.90;;
59790;SDS011;47431;51.640;5.554;2022-12-29T14:42:11;40.45;;;6.25;;
59790;SDS011;47431;51.640;5.554;2022-12-29T14:44:48;12.70;;;4.07;;
59790;SDS011;47431;51.640;5.554;2022-12-29T14:47:20;40.28;;;7.03;;
59790;SDS011;47431;51.640;5.554;2022-12-29T14:49:52;46.28;;;6.47;;
59790;SDS011;47431;51.640;5.554;2022-12-29T14:58:53;15.57;;;4.32;;
59790;SDS011;47431;51.640;5.554;2022-12-29T15:01:26;28.30;;;6.28;;
59790;SDS011;47431;51.640;5.554;2022-12-29T15:03:58;16.00;;;3.50;;
59790;SDS011;47431;51.640;5.554;2022-12-29T15:06:51;12.35;;;3.60;;
59790;SDS011;47431;51.640;5.554;2022-12-29T15:12:05;35.75;;;5.70;;
59790;SDS011;47431;51.640;5.554;2022-12-29T15:14:47;19.88;;;4.18;;
59790;SDS011;47431;51.640;5.554;2022-12-29T15:17:28;22.48;;;4.47;;
59790;SDS011;47431;51.640;5.554;2022-12-29T15:19:56;17.50;;;5.32;;
59790;SDS011;47431;51.640;5.554;2022-12-29T15:22:23;15.00;;;3.75;;
59790;SDS011;47431;51.640;5.554;2022-12-29T15:24:49;14.50;;;3.50;;
59790;SDS011;47431;51.640;5.554;2022-12-29T15:27:25;14.93;;;4.13;;
59790;SDS011;47431;51.640;5.554;2022-12-29T15:29:58;27.25;;;4.95;;
59790;SDS011;47431;51.640;5.554;2022-12-29T15:32:45;10.82;;;2.80;;
59790;SDS011;47431;51.640;5.554;2022-12-29T15:38:00;22.23;;;4.53;;
59790;SDS011;47431;51.640;5.554;2022-12-29T15:40:38;9.20;;;3.10;;
59790;SDS011;47431;51.640;5.554;2022-12-29T15:45:51;14.60;;;3.08;;
59790;SDS011;47431;51.640;5.554;2022-12-29T15:48:20;12.55;;;3.10;;
59790;SDS011;47431;51.640;5.554;2022-12-29T15:50:48;15.90;;;3.17;;
59790;SDS011;47431;51.640;5.554;2022-12-29T15:53:24;8.20;;;2.50;;
59790;SDS011;47431;51.640;5.554;2022-12-29T15:55:56;20.63;;;3.47;;
59790;SDS011;47431;51.640;5.554;2022-12-29T15:58:26;8.43;;;2.58;;
59790;SDS011;47431;51.640;5.554;2022-12-29T16:00:55;6.38;;;2.08;;
59790;SDS011;47431;51.640;5.554;2022-12-29T16:03:22;12.35;;;2.55;;
59790;SDS011;47431;51.640;5.554;2022-12-29T16:05:52;6.18;;;2.00;;
59790;SDS011;47431;51.640;5.554;2022-12-29T16:08:32;8.13;;;1.98;;
59790;SDS011;47431;51.640;5.554;2022-12-29T16:10:58;27.70;;;4.28;;
59790;SDS011;47431;51.640;5.554;2022-12-29T16:13:32;8.35;;;2.15;;
59790;SDS011;47431;51.640;5.554;2022-12-29T16:18:43;10.40;;;3.00;;
59790;SDS011;47431;51.640;5.554;2022-12-29T16:21:16;8.52;;;2.00;;
59790;SDS011;47431;51.640;5.554;2022-12-29T16:23:48;11.10;;;2.42;;
59790;SDS011;47431;51.640;5.554;2022-12-29T16:26:16;14.07;;;2.72;;
59790;SDS011;47431;51.640;5.554;2022-12-29T16:28:43;6.57;;;2.10;;
59790;SDS011;47431;51.640;5.554;2022-12-29T16:31:17;7.13;;;2.33;;
59790;SDS011;47431;51.640;5.554;2022-12-29T16:33:48;10.40;;;2.47;;
59790;SDS011;47431;51.640;5.554;2022-12-29T16:36:32;10.63;;;2.40;;
59790;SDS011;47431;51.640;5.554;2022-12-29T16:39:15;12.10;;;3.85;;
59790;SDS011;47431;51.640;5.554;2022-12-29T16:50:37;11.33;;;2.30;;
59790;SDS011;47431;51.640;5.554;2022-12-29T16:53:05;14.98;;;2.05;;
59790;SDS011;47431;51.640;5.554;2022-12-29T16:55:32;7.78;;;2.50;;
59790;SDS011;47431;51.640;5.554;2022-12-29T16:57:58;12.07;;;2.97;;
59790;SDS011;47431;51.640;5.554;2022-12-29T17:00:29;13.80;;;3.67;;
59790;SDS011;47431;51.640;5.554;2022-12-29T17:03:00;11.30;;;3.03;;
59790;SDS011;47431;51.640;5.554;2022-12-29T17:05:28;13.15;;;3.08;;
59790;SDS011;47431;51.640;5.554;2022-12-29T17:07:53;20.30;;;2.75;;
59790;SDS011;47431;51.640;5.554;2022-12-29T17:10:19;12.75;;;2.70;;
59790;SDS011;47431;51.640;5.554;2022-12-29T17:12:46;10.82;;;2.75;;
59790;SDS011;47431;51.640;5.554;2022-12-29T17:15:14;10.30;;;2.17;;
59790;SDS011;47431;51.640;5.554;2022-12-29T17:17:46;12.63;;;2.90;;
59790;SDS011;47431;51.640;5.554;2022-12-29T17:20:22;11.63;;;2.75;;
59790;SDS011;47431;51.640;5.554;2022-12-29T17:22:49;11.70;;;3.33;;
59790;SDS011;47431;51.640;5.554;2022-12-29T17:25:21;14.95;;;3.55;;
59790;SDS011;47431;51.640;5.554;2022-12-29T17:30:24;15.10;;;2.72;;
59790;SDS011;47431;51.640;5.554;2022-12-29T17:32:51;10.80;;;2.83;;
59790;SDS011;47431;51.640;5.554;2022-12-29T17:35:20;11.73;;;3.17;;
59790;SDS011;47431;51.640;5.554;2022-12-29T17:37:46;9.90;;;3.17;;
59790;SDS011;47431;51.640;5.554;2022-12-29T17:40:14;15.60;;;3.35;;
59790;SDS011;47431;51.640;5.554;2022-12-29T17:42:42;12.07;;;3.80;;
59790;SDS011;47431;51.640;5.554;2022-12-29T17:45:16;14.88;;;3.70;;
59790;SDS011;47431;51.640;5.554;2022-12-29T17:47:44;15.90;;;2.97;;
59790;SDS011;47431;51.640;5.554;2022-12-29T17:50:14;12.40;;;2.88;;
59790;SDS011;47431;51.640;5.554;2022-12-29T17:52:41;15.68;;;4.00;;
59790;SDS011;47431;51.640;5.554;2022-12-29T17:55:12;13.65;;;3.67;;
59790;SDS011;47431;51.640;5.554;2022-12-29T17:57:41;8.57;;;2.70;;
59790;SDS011;47431;51.640;5.554;2022-12-29T18:00:08;16.90;;;4.78;;
59790;SDS011;47431;51.640;5.554;2022-12-29T18:02:39;13.20;;;4.15;;
59790;SDS011;47431;51.640;5.554;2022-12-29T18:05:05;16.63;;;3.80;;
59790;SDS011;47431;51.640;5.554;2022-12-29T18:07:40;23.42;;;3.50;;
59790;SDS011;47431;51.640;5.554;2022-12-29T18:10:05;17.00;;;3.38;;
59790;SDS011;47431;51.640;5.554;2022-12-29T18:12:33;16.38;;;4.15;;